sensor_id;sensor_type;location;lat;lon;timestamp;P1;durP1;ratioP1;P2;durP2;ratioP2
21114;SDS011;10715;48.546;9.896;2022-12-29T00:00:09;1.20;;;0.97;;
21114;SDS011;10715;48.546;9.896;2022-12-29T00:02:35;2.07;;;0.67;;
21114;SDS011;10715;48.546;9.896;2022-12-29T00:05:01;2.33;;;0.73;;
21114;SDS011;10715;48.546;9.896;2022-12-29T00:07:27;1.00;;;0.67;;
21114;SDS011;10715;48.546;9.896;2022-12-29T00:09:53;1.60;;;0.90;;
21114;SDS011;10715;48.546;9.896;2022-12-29T00:12:18;1.07;;;0.63;;
21114;SDS011;10715;48.546;9.896;2022-12-29T00:14:44;1.00;;;0.63;;
21114;SDS011;10715;48.546;9.896;2022-12-29T00:17:28;0.90;;;0.60;;
21114;SDS011;10715;48.546;9.896;2022-12-29T00:19:54;1.70;;;0.93;;
21114;SDS011;10715;48.546;9.896;2022-12-29T00:22:38;1.17;;;0.90;;
21114;SDS011;10715;48.546;9.896;2022-12-29T00:25:22;2.10;;;1.13;;
21114;SDS011;10715;48.546;9.896;2022-12-29T00:28:08;1.53;;;0.97;;
21114;SDS011;10715;48.546;9.896;2022-12-29T00:30:53;1.10;;;0.70;;
21114;SDS011;10715;48.546;9.896;2022-12-29T00:33:37;1.40;;;0.83;;
21114;SDS011;10715;48.546;9.896;2022-12-29T00:36:28;1.87;;;0.60;;
21114;SDS011;10715;48.546;9.896;2022-12-29T00:39:07;1.27;;;0.80;;
21114;SDS011;10715;48.546;9.896;2022-12-29T00:41:56;1.37;;;0.90;;
21114;SDS011;10715;48.546;9.896;2022-12-29T00:45:02;1.07;;;0.93;;
21114;SDS011;10715;48.546;9.896;2022-12-29T00:47:28;1.83;;;0.90;;
21114;SDS011;10715;48.546;9.896;2022-12-29T00:49:54;1.30;;;0.93;;
21114;SDS011;10715;48.546;9.896;2022-12-29T00:52:20;1.70;;;1.00;;
21114;SDS011;10715;48.546;9.896;2022-12-29T00:54:45;1.50;;;1.00;;
21114;SDS011;10715;48.546;9.896;2022-12-29T00:57:11;1.20;;;0.80;;
21114;SDS011;10715;48.546;9.896;2022-12-29T00:59:38;1.30;;;0.77;;
21114;SDS011;10715;48.546;9.896;2022-12-29T01:02:04;4.10;;;0.87;;
21114;SDS011;10715;48.546;9.896;2022-12-29T01:04:31;1.30;;;0.73;;
21114;SDS011;10715;48.546;9.896;2022-12-29T01:06:57;1.07;;;0.70;;
21114;SDS011;10715;48.546;9.896;2022-12-29T01:09:22;1.10;;;0.80;;
21114;SDS011;10715;48.546;9.896;2022-12-29T01:12:07;1.83;;;0.60;;
21114;SDS011;10715;48.546;9.896;2022-12-29T01:14:34;1.23;;;0.77;;
21114;SDS011;10715;48.546;9.896;2022-12-29T01:17:00;1.10;;;0.60;;
21114;SDS011;10715;48.546;9.896;2022-12-29T01:19:26;1.30;;;0.77;;
21114;SDS011;10715;48.546;9.896;2022-12-29T01:21:52;1.37;;;0.90;;
21114;SDS011;10715;48.546;9.896;2022-12-29T01:24:18;1.37;;;0.70;;
21114;SDS011;10715;48.546;9.896;2022-12-29T01:26:45;2.03;;;0.50;;
21114;SDS011;10715;48.546;9.896;2022-12-29T01:29:11;1.00;;;0.60;;
21114;SDS011;10715;48.546;9.896;2022-12-29T01:31:37;1.23;;;0.60;;
21114;SDS011;10715;48.546;9.896;2022-12-29T01:34:03;1.10;;;0.60;;
21114;SDS011;10715;48.546;9.896;2022-12-29T01:36:29;1.00;;;0.60;;
21114;SDS011;10715;48.546;9.896;2022-12-29T01:38:55;1.00;;;0.80;;
21114;SDS011;10715;48.546;9.896;2022-12-29T01:41:21;2.77;;;1.23;;
21114;SDS011;10715;48.546;9.896;2022-12-29T01:46:28;5.03;;;0.97;;
21114;SDS011;10715;48.546;9.896;2022-12-29T01:51:58;1.63;;;0.60;;
21114;SDS011;10715;48.546;9.896;2022-12-29T01:54:26;1.10;;;0.70;;
21114;SDS011;10715;48.546;9.896;2022-12-29T01:56:59;0.97;;;0.67;;
21114;SDS011;10715;48.546;9.896;2022-12-29T01:59:29;0.83;;;0.70;;
21114;SDS011;10715;48.546;9.896;2022-12-29T02:01:57;1.50;;;0.60;;
21114;SDS011;10715;48.546;9.896;2022-12-29T02:04:24;0.90;;;0.80;;
21114;SDS011;10715;48.546;9.896;2022-12-29T02:07:02;0.80;;;0.50;;
21114;SDS011;10715;48.546;9.896;2022-12-29T02:09:32;0.93;;;0.50;;
21114;SDS011;10715;48.546;9.896;2022-12-29T02:11:58;1.47;;;0.57;;
21114;SDS011;10715;48.546;9.896;2022-12-29T02:14:24;1.03;;;0.60;;
21114;SDS011;10715;48.546;9.896;2022-12-29T02:38:26;0.90;;;0.60;;
21114;SDS011;10715;48.546;9.896;2022-12-29T02:44:12;1.23;;;0.80;;
21114;SDS011;10715;48.546;9.896;2022-12-29T02:46:44;0.90;;;0.50;;
21114;SDS011;10715;48.546;9.896;2022-12-29T02:49:22;1.17;;;0.60;;
21114;SDS011;10715;48.546;9.896;2022-12-29T02:52:07;0.73;;;0.40;;
21114;SDS011;10715;48.546;9.896;2022-12-29T02:54:39;1.30;;;0.80;;
21114;SDS011;10715;48.546;9.896;2022-12-29T02:57:48;1.23;;;0.70;;
21114;SDS011;10715;48.546;9.896;2022-12-29T03:00:30;2.57;;;0.60;;
21114;SDS011;10715;48.546;9.896;2022-12-29T03:03:01;0.90;;;0.50;;
21114;SDS011;10715;48.546;9.896;2022-12-29T03:14:48;1.10;;;0.80;;
21114;SDS011;10715;48.546;9.896;2022-12-29T03:20:34;3.33;;;1.73;;
21114;SDS011;10715;48.546;9.896;2022-12-29T03:23:17;1.03;;;0.77;;
21114;SDS011;10715;48.546;9.896;2022-12-29T03:25:50;0.80;;;0.53;;
21114;SDS011;10715;48.546;9.896;2022-12-29T03:28:27;1.00;;;0.50;;
21114;SDS011;10715;48.546;9.896;2022-12-29T03:31:00;2.33;;;0.60;;
21114;SDS011;10715;48.546;9.896;2022-12-29T03:33:28;0.83;;;0.63;;
21114;SDS011;10715;48.546;9.896;2022-12-29T03:36:00;0.70;;;0.40;;
21114;SDS011;10715;48.546;9.896;2022-12-29T03:41:04;0.90;;;0.50;;
21114;SDS011;10715;48.546;9.896;2022-12-29T03:43:34;0.80;;;0.50;;
21114;SDS011;10715;48.546;9.896;2022-12-29T03:46:00;1.23;;;0.50;;
21114;SDS011;10715;48.546;9.896;2022-12-29T03:48:25;2.63;;;0.50;;
21114;SDS011;10715;48.546;9.896;2022-12-29T03:50:51;1.83;;;0.60;;
21114;SDS011;10715;48.546;9.896;2022-12-29T03:53:17;0.90;;;0.50;;
21114;SDS011;10715;48.546;9.896;2022-12-29T03:55:43;1.93;;;0.60;;
21114;SDS011;10715;48.546;9.896;2022-12-29T03:58:08;1.00;;;0.90;;
21114;SDS011;10715;48.546;9.896;2022-12-29T04:00:34;1.00;;;0.50;;
21114;SDS011;10715;48.546;9.896;2022-12-29T04:03:00;1.90;;;0.50;;
21114;SDS011;10715;48.546;9.896;2022-12-29T04:05:25;1.07;;;0.50;;
21114;SDS011;10715;48.546;9.896;2022-12-29T04:07:51;1.97;;;0.60;;
21114;SDS011;10715;48.546;9.896;2022-12-29T04:10:17;4.50;;;0.70;;
21114;SDS011;10715;48.546;9.896;2022-12-29T04:12:43;1.00;;;0.60;;
21114;SDS011;10715;48.546;9.896;2022-12-29T04:15:10;1.37;;;0.60;;
21114;SDS011;10715;48.546;9.896;2022-12-29T04:17:36;2.47;;;0.77;;
21114;SDS011;10715;48.546;9.896;2022-12-29T04:20:02;0.90;;;0.40;;
21114;SDS011;10715;48.546;9.896;2022-12-29T04:22:47;2.40;;;0.70;;
21114;SDS011;10715;48.546;9.896;2022-12-29T04:25:12;1.13;;;0.67;;
21114;SDS011;10715;48.546;9.896;2022-12-29T04:27:38;1.10;;;0.60;;
21114;SDS011;10715;48.546;9.896;2022-12-29T04:30:04;1.10;;;0.60;;
21114;SDS011;10715;48.546;9.896;2022-12-29T04:32:30;0.80;;;0.50;;
21114;SDS011;10715;48.546;9.896;2022-12-29T04:34:56;0.90;;;0.50;;
21114;SDS011;10715;48.546;9.896;2022-12-29T04:37:21;1.47;;;1.37;;
21114;SDS011;10715;48.546;9.896;2022-12-29T04:39:47;1.23;;;0.77;;
21114;SDS011;10715;48.546;9.896;2022-12-29T04:42:13;3.23;;;0.50;;
21114;SDS011;10715;48.546;9.896;2022-12-29T04:44:39;0.83;;;0.50;;
21114;SDS011;10715;48.546;9.896;2022-12-29T04:47:04;7.43;;;0.70;;
21114;SDS011;10715;48.546;9.896;2022-12-29T04:49:30;0.97;;;0.60;;
21114;SDS011;10715;48.546;9.896;2022-12-29T04:51:56;1.10;;;0.60;;
21114;SDS011;10715;48.546;9.896;2022-12-29T04:54:22;0.97;;;0.50;;
21114;SDS011;10715;48.546;9.896;2022-12-29T04:56:47;0.90;;;0.50;;
21114;SDS011;10715;48.546;9.896;2022-12-29T04:59:13;0.87;;;0.60;;
21114;SDS011;10715;48.546;9.896;2022-12-29T05:01:39;0.90;;;0.60;;
21114;SDS011;10715;48.546;9.896;2022-12-29T05:04:04;4.70;;;0.70;;
21114;SDS011;10715;48.546;9.896;2022-12-29T05:06:30;2.70;;;0.90;;
21114;SDS011;10715;48.546;9.896;2022-12-29T05:08:56;0.90;;;0.60;;
21114;SDS011;10715;48.546;9.896;2022-12-29T05:11:21;1.00;;;0.77;;
21114;SDS011;10715;48.546;9.896;2022-12-29T05:13:47;1.73;;;0.83;;
21114;SDS011;10715;48.546;9.896;2022-12-29T05:16:13;1.33;;;0.50;;
21114;SDS011;10715;48.546;9.896;2022-12-29T05:18:38;1.57;;;0.70;;
21114;SDS011;10715;48.546;9.896;2022-12-29T05:21:04;1.20;;;0.83;;
21114;SDS011;10715;48.546;9.896;2022-12-29T05:23:30;1.87;;;0.90;;
21114;SDS011;10715;48.546;9.896;2022-12-29T05:25:55;3.17;;;1.97;;
21114;SDS011;10715;48.546;9.896;2022-12-29T05:28:21;1.83;;;1.30;;
21114;SDS011;10715;48.546;9.896;2022-12-29T05:30:48;7.63;;;1.20;;
21114;SDS011;10715;48.546;9.896;2022-12-29T05:33:15;2.50;;;1.77;;
21114;SDS011;10715;48.546;9.896;2022-12-29T05:35:42;1.83;;;0.90;;
21114;SDS011;10715;48.546;9.896;2022-12-29T05:38:08;2.30;;;1.40;;
21114;SDS011;10715;48.546;9.896;2022-12-29T05:40:34;1.43;;;0.90;;
21114;SDS011;10715;48.546;9.896;2022-12-29T05:43:00;1.10;;;0.87;;
21114;SDS011;10715;48.546;9.896;2022-12-29T05:45:25;1.60;;;1.07;;
21114;SDS011;10715;48.546;9.896;2022-12-29T05:47:51;1.53;;;0.70;;
21114;SDS011;10715;48.546;9.896;2022-12-29T05:50:17;1.43;;;1.00;;
21114;SDS011;10715;48.546;9.896;2022-12-29T05:52:42;1.60;;;0.87;;
21114;SDS011;10715;48.546;9.896;2022-12-29T05:55:08;1.03;;;0.80;;
21114;SDS011;10715;48.546;9.896;2022-12-29T05:57:34;1.93;;;1.10;;
21114;SDS011;10715;48.546;9.896;2022-12-29T06:00:00;1.43;;;1.13;;
21114;SDS011;10715;48.546;9.896;2022-12-29T06:02:26;1.17;;;0.90;;
21114;SDS011;10715;48.546;9.896;2022-12-29T06:04:52;3.07;;;1.00;;
21114;SDS011;10715;48.546;9.896;2022-12-29T06:07:18;1.40;;;0.83;;
21114;SDS011;10715;48.546;9.896;2022-12-29T06:09:43;0.90;;;0.60;;
21114;SDS011;10715;48.546;9.896;2022-12-29T06:12:09;1.53;;;1.07;;
21114;SDS011;10715;48.546;9.896;2022-12-29T06:14:34;1.37;;;1.27;;
21114;SDS011;10715;48.546;9.896;2022-12-29T06:17:00;4.47;;;3.57;;
21114;SDS011;10715;48.546;9.896;2022-12-29T06:19:26;4.93;;;2.37;;
21114;SDS011;10715;48.546;9.896;2022-12-29T06:21:51;3.37;;;2.23;;
21114;SDS011;10715;48.546;9.896;2022-12-29T06:24:20;6.37;;;3.10;;
21114;SDS011;10715;48.546;9.896;2022-12-29T06:26:46;2.53;;;1.70;;
21114;SDS011;10715;48.546;9.896;2022-12-29T06:29:12;3.17;;;2.63;;
21114;SDS011;10715;48.546;9.896;2022-12-29T06:31:41;4.50;;;1.87;;
21114;SDS011;10715;48.546;9.896;2022-12-29T06:34:08;2.20;;;1.07;;
21114;SDS011;10715;48.546;9.896;2022-12-29T06:36:34;3.73;;;1.87;;
21114;SDS011;10715;48.546;9.896;2022-12-29T06:38:59;3.10;;;1.53;;
21114;SDS011;10715;48.546;9.896;2022-12-29T06:41:25;1.60;;;1.20;;
21114;SDS011;10715;48.546;9.896;2022-12-29T06:43:51;3.33;;;1.13;;
21114;SDS011;10715;48.546;9.896;2022-12-29T06:46:17;5.27;;;1.53;;
21114;SDS011;10715;48.546;9.896;2022-12-29T06:48:42;1.90;;;1.13;;
21114;SDS011;10715;48.546;9.896;2022-12-29T06:51:08;1.17;;;0.70;;
21114;SDS011;10715;48.546;9.896;2022-12-29T06:53:34;1.50;;;0.70;;
21114;SDS011;10715;48.546;9.896;2022-12-29T06:55:59;1.90;;;1.13;;
21114;SDS011;10715;48.546;9.896;2022-12-29T06:58:25;1.10;;;0.77;;
21114;SDS011;10715;48.546;9.896;2022-12-29T07:00:51;1.00;;;0.67;;
21114;SDS011;10715;48.546;9.896;2022-12-29T07:03:16;2.37;;;0.70;;
21114;SDS011;10715;48.546;9.896;2022-12-29T07:05:42;2.10;;;0.70;;
21114;SDS011;10715;48.546;9.896;2022-12-29T07:08:08;1.20;;;0.67;;
21114;SDS011;10715;48.546;9.896;2022-12-29T07:10:33;1.40;;;1.00;;
21114;SDS011;10715;48.546;9.896;2022-12-29T07:12:59;2.33;;;1.00;;
21114;SDS011;10715;48.546;9.896;2022-12-29T07:15:25;2.60;;;1.50;;
21114;SDS011;10715;48.546;9.896;2022-12-29T07:17:51;2.70;;;1.87;;
21114;SDS011;10715;48.546;9.896;2022-12-29T07:20:16;2.50;;;1.20;;
21114;SDS011;10715;48.546;9.896;2022-12-29T07:22:42;2.40;;;1.37;;
21114;SDS011;10715;48.546;9.896;2022-12-29T07:25:09;2.50;;;0.93;;
21114;SDS011;10715;48.546;9.896;2022-12-29T07:27:35;1.57;;;1.00;;
21114;SDS011;10715;48.546;9.896;2022-12-29T07:30:00;2.87;;;2.57;;
21114;SDS011;10715;48.546;9.896;2022-12-29T07:32:26;2.10;;;0.90;;
21114;SDS011;10715;48.546;9.896;2022-12-29T07:34:52;1.37;;;1.27;;
21114;SDS011;10715;48.546;9.896;2022-12-29T07:37:17;1.93;;;1.83;;
21114;SDS011;10715;48.546;9.896;2022-12-29T07:39:43;7.53;;;5.40;;
21114;SDS011;10715;48.546;9.896;2022-12-29T07:42:09;3.33;;;3.10;;
21114;SDS011;10715;48.546;9.896;2022-12-29T07:44:35;2.80;;;1.80;;
21114;SDS011;10715;48.546;9.896;2022-12-29T07:47:01;2.13;;;1.93;;
21114;SDS011;10715;48.546;9.896;2022-12-29T07:49:27;4.97;;;2.33;;
21114;SDS011;10715;48.546;9.896;2022-12-29T07:51:53;2.97;;;2.70;;
21114;SDS011;10715;48.546;9.896;2022-12-29T07:54:19;3.83;;;1.43;;
21114;SDS011;10715;48.546;9.896;2022-12-29T07:56:44;3.40;;;1.67;;
21114;SDS011;10715;48.546;9.896;2022-12-29T07:59:10;3.03;;;2.80;;
21114;SDS011;10715;48.546;9.896;2022-12-29T08:01:37;2.67;;;2.20;;
21114;SDS011;10715;48.546;9.896;2022-12-29T08:04:03;1.20;;;0.97;;
21114;SDS011;10715;48.546;9.896;2022-12-29T08:06:29;2.27;;;2.07;;
21114;SDS011;10715;48.546;9.896;2022-12-29T08:08:55;2.80;;;2.33;;
21114;SDS011;10715;48.546;9.896;2022-12-29T08:11:22;3.63;;;3.30;;
21114;SDS011;10715;48.546;9.896;2022-12-29T08:13:48;1.57;;;1.47;;
21114;SDS011;10715;48.546;9.896;2022-12-29T08:16:14;2.07;;;1.47;;
21114;SDS011;10715;48.546;9.896;2022-12-29T08:18:40;5.03;;;1.20;;
21114;SDS011;10715;48.546;9.896;2022-12-29T08:21:05;7.07;;;5.17;;
21114;SDS011;10715;48.546;9.896;2022-12-29T08:23:31;5.83;;;5.20;;
21114;SDS011;10715;48.546;9.896;2022-12-29T08:25:58;2.77;;;2.07;;
21114;SDS011;10715;48.546;9.896;2022-12-29T08:28:25;4.70;;;4.40;;
21114;SDS011;10715;48.546;9.896;2022-12-29T08:30:52;2.43;;;1.30;;
21114;SDS011;10715;48.546;9.896;2022-12-29T08:33:18;1.83;;;1.50;;
21114;SDS011;10715;48.546;9.896;2022-12-29T08:35:44;6.20;;;2.80;;
21114;SDS011;10715;48.546;9.896;2022-12-29T08:38:10;1.37;;;1.20;;
21114;SDS011;10715;48.546;9.896;2022-12-29T08:40:38;1.57;;;1.23;;
21114;SDS011;10715;48.546;9.896;2022-12-29T08:43:04;2.40;;;1.73;;
21114;SDS011;10715;48.546;9.896;2022-12-29T08:45:30;1.27;;;0.87;;
21114;SDS011;10715;48.546;9.896;2022-12-29T08:47:56;2.70;;;2.50;;
21114;SDS011;10715;48.546;9.896;2022-12-29T08:50:22;2.23;;;1.60;;
21114;SDS011;10715;48.546;9.896;2022-12-29T08:52:47;2.20;;;1.57;;
21114;SDS011;10715;48.546;9.896;2022-12-29T08:55:13;1.60;;;1.03;;
21114;SDS011;10715;48.546;9.896;2022-12-29T08:57:39;1.27;;;0.90;;
21114;SDS011;10715;48.546;9.896;2022-12-29T09:00:05;1.30;;;0.77;;
21114;SDS011;10715;48.546;9.896;2022-12-29T09:02:32;1.20;;;0.77;;
21114;SDS011;10715;48.546;9.896;2022-12-29T09:04:57;2.93;;;2.13;;
21114;SDS011;10715;48.546;9.896;2022-12-29T09:07:23;1.27;;;0.80;;
21114;SDS011;10715;48.546;9.896;2022-12-29T09:09:49;1.30;;;1.00;;
21114;SDS011;10715;48.546;9.896;2022-12-29T09:12:16;4.13;;;1.43;;
21114;SDS011;10715;48.546;9.896;2022-12-29T09:14:42;1.70;;;1.07;;
21114;SDS011;10715;48.546;9.896;2022-12-29T09:17:09;1.47;;;1.27;;
21114;SDS011;10715;48.546;9.896;2022-12-29T09:19:54;2.50;;;1.73;;
21114;SDS011;10715;48.546;9.896;2022-12-29T09:22:20;1.73;;;1.63;;
21114;SDS011;10715;48.546;9.896;2022-12-29T09:24:46;1.20;;;0.90;;
21114;SDS011;10715;48.546;9.896;2022-12-29T09:27:12;2.03;;;1.20;;
21114;SDS011;10715;48.546;9.896;2022-12-29T09:29:38;2.47;;;0.70;;
21114;SDS011;10715;48.546;9.896;2022-12-29T09:32:04;1.40;;;1.00;;
21114;SDS011;10715;48.546;9.896;2022-12-29T09:34:29;2.57;;;1.40;;
21114;SDS011;10715;48.546;9.896;2022-12-29T09:36:55;3.70;;;0.90;;
21114;SDS011;10715;48.546;9.896;2022-12-29T09:39:21;1.37;;;0.93;;
21114;SDS011;10715;48.546;9.896;2022-12-29T09:47:24;3.30;;;1.33;;
21114;SDS011;10715;48.546;9.896;2022-12-29T09:50:20;1.67;;;0.93;;
21114;SDS011;10715;48.546;9.896;2022-12-29T09:55:19;2.60;;;0.90;;
21114;SDS011;10715;48.546;9.896;2022-12-29T10:00:23;2.40;;;0.70;;
21114;SDS011;10715;48.546;9.896;2022-12-29T10:02:59;1.50;;;0.90;;
21114;SDS011;10715;48.546;9.896;2022-12-29T10:17:05;14.97;;;1.30;;
21114;SDS011;10715;48.546;9.896;2022-12-29T10:22:51;1.73;;;1.10;;
21114;SDS011;10715;48.546;9.896;2022-12-29T10:25:25;4.53;;;0.70;;
21114;SDS011;10715;48.546;9.896;2022-12-29T10:27:53;1.23;;;0.90;;
21114;SDS011;10715;48.546;9.896;2022-12-29T10:30:22;1.20;;;0.80;;
21114;SDS011;10715;48.546;9.896;2022-12-29T10:32:54;1.33;;;0.77;;
21114;SDS011;10715;48.546;9.896;2022-12-29T10:35:25;1.40;;;0.80;;
21114;SDS011;10715;48.546;9.896;2022-12-29T10:45:55;2.03;;;0.97;;
21114;SDS011;10715;48.546;9.896;2022-12-29T10:48:35;2.37;;;0.90;;
21114;SDS011;10715;48.546;9.896;2022-12-29T10:51:02;2.13;;;0.50;;
21114;SDS011;10715;48.546;9.896;2022-12-29T10:53:38;1.03;;;0.93;;
21114;SDS011;10715;48.546;9.896;2022-12-29T10:56:17;2.43;;;0.90;;
21114;SDS011;10715;48.546;9.896;2022-12-29T10:58:55;2.50;;;1.17;;
21114;SDS011;10715;48.546;9.896;2022-12-29T11:01:26;1.60;;;0.90;;
21114;SDS011;10715;48.546;9.896;2022-12-29T11:04:02;2.30;;;1.40;;
21114;SDS011;10715;48.546;9.896;2022-12-29T11:06:48;3.73;;;0.93;;
21114;SDS011;10715;48.546;9.896;2022-12-29T11:12:21;0.80;;;0.60;;
21114;SDS011;10715;48.546;9.896;2022-12-29T11:15:35;4.67;;;1.60;;
21114;SDS011;10715;48.546;9.896;2022-12-29T11:20:24;6.20;;;1.87;;
21114;SDS011;10715;48.546;9.896;2022-12-29T11:22:52;2.93;;;1.07;;
21114;SDS011;10715;48.546;9.896;2022-12-29T11:25:18;2.40;;;1.20;;
21114;SDS011;10715;48.546;9.896;2022-12-29T11:27:54;2.53;;;1.10;;
21114;SDS011;10715;48.546;9.896;2022-12-29T11:30:24;1.80;;;1.20;;
21114;SDS011;10715;48.546;9.896;2022-12-29T11:32:52;2.70;;;0.80;;
21114;SDS011;10715;48.546;9.896;2022-12-29T11:35:29;1.30;;;1.00;;
21114;SDS011;10715;48.546;9.896;2022-12-29T11:37:57;1.60;;;0.80;;
21114;SDS011;10715;48.546;9.896;2022-12-29T11:40:24;4.23;;;2.93;;
21114;SDS011;10715;48.546;9.896;2022-12-29T11:47:45;1.00;;;0.67;;
21114;SDS011;10715;48.546;9.896;2022-12-29T11:50:27;2.73;;;0.93;;
21114;SDS011;10715;48.546;9.896;2022-12-29T11:53:07;1.80;;;0.60;;
21114;SDS011;10715;48.546;9.896;2022-12-29T11:55:39;2.57;;;0.87;;
21114;SDS011;10715;48.546;9.896;2022-12-29T11:58:05;2.97;;;1.00;;
21114;SDS011;10715;48.546;9.896;2022-12-29T12:00:32;2.00;;;0.80;;
21114;SDS011;10715;48.546;9.896;2022-12-29T12:03:13;1.90;;;0.87;;
21114;SDS011;10715;48.546;9.896;2022-12-29T12:05:57;1.17;;;0.70;;
21114;SDS011;10715;48.546;9.896;2022-12-29T12:11:38;2.50;;;0.80;;
21114;SDS011;10715;48.546;9.896;2022-12-29T12:19:53;3.40;;;0.50;;
21114;SDS011;10715;48.546;9.896;2022-12-29T12:24:54;1.30;;;0.80;;
21114;SDS011;10715;48.546;9.896;2022-12-29T12:27:28;1.03;;;0.63;;
21114;SDS011;10715;48.546;9.896;2022-12-29T12:30:03;3.17;;;0.70;;
21114;SDS011;10715;48.546;9.896;2022-12-29T12:33:00;2.17;;;0.70;;
21114;SDS011;10715;48.546;9.896;2022-12-29T12:35:42;1.67;;;0.70;;
21114;SDS011;10715;48.546;9.896;2022-12-29T12:41:09;1.20;;;0.90;;
21114;SDS011;10715;48.546;9.896;2022-12-29T12:54:33;0.90;;;0.60;;
21114;SDS011;10715;48.546;9.896;2022-12-29T13:00:01;3.90;;;1.30;;
21114;SDS011;10715;48.546;9.896;2022-12-29T13:26:50;1.40;;;0.70;;
21114;SDS011;10715;48.546;9.896;2022-12-29T13:37:41;1.60;;;0.60;;
21114;SDS011;10715;48.546;9.896;2022-12-29T13:40:32;3.23;;;0.70;;
21114;SDS011;10715;48.546;9.896;2022-12-29T13:43:04;1.33;;;0.80;;
21114;SDS011;10715;48.546;9.896;2022-12-29T13:45:31;0.97;;;0.70;;
21114;SDS011;10715;48.546;9.896;2022-12-29T13:48:19;1.73;;;0.60;;
21114;SDS011;10715;48.546;9.896;2022-12-29T13:50:53;1.90;;;0.70;;
21114;SDS011;10715;48.546;9.896;2022-12-29T14:01:27;3.00;;;1.07;;
21114;SDS011;10715;48.546;9.896;2022-12-29T14:04:03;5.30;;;1.30;;
21114;SDS011;10715;48.546;9.896;2022-12-29T14:07:12;1.80;;;1.00;;
21114;SDS011;10715;48.546;9.896;2022-12-29T14:09:51;1.97;;;1.57;;
21114;SDS011;10715;48.546;9.896;2022-12-29T14:15:02;2.60;;;1.57;;
21114;SDS011;10715;48.546;9.896;2022-12-29T14:17:32;3.50;;;1.53;;
21114;SDS011;10715;48.546;9.896;2022-12-29T14:19:58;4.60;;;2.60;;
21114;SDS011;10715;48.546;9.896;2022-12-29T14:22:24;2.03;;;1.60;;
21114;SDS011;10715;48.546;9.896;2022-12-29T14:24:51;6.50;;;2.00;;
21114;SDS011;10715;48.546;9.896;2022-12-29T14:29:43;2.40;;;1.53;;
21114;SDS011;10715;48.546;9.896;2022-12-29T14:33:00;5.00;;;0.70;;
21114;SDS011;10715;48.546;9.896;2022-12-29T14:35:36;2.00;;;1.20;;
21114;SDS011;10715;48.546;9.896;2022-12-29T14:38:13;1.53;;;1.27;;
21114;SDS011;10715;48.546;9.896;2022-12-29T14:40:43;4.17;;;1.70;;
21114;SDS011;10715;48.546;9.896;2022-12-29T14:43:18;3.63;;;1.80;;
21114;SDS011;10715;48.546;9.896;2022-12-29T14:45:51;1.60;;;1.30;;
21114;SDS011;10715;48.546;9.896;2022-12-29T14:48:29;2.73;;;2.53;;
21114;SDS011;10715;48.546;9.896;2022-12-29T14:50:58;4.37;;;2.77;;
21114;SDS011;10715;48.546;9.896;2022-12-29T14:56:19;6.10;;;2.93;;
21114;SDS011;10715;48.546;9.896;2022-12-29T14:58:57;4.63;;;2.80;;
21114;SDS011;10715;48.546;9.896;2022-12-29T15:03:58;5.37;;;4.10;;
21114;SDS011;10715;48.546;9.896;2022-12-29T15:06:30;9.00;;;2.43;;
21114;SDS011;10715;48.546;9.896;2022-12-29T15:09:04;2.17;;;1.47;;
21114;SDS011;10715;48.546;9.896;2022-12-29T15:17:29;3.00;;;1.97;;
21114;SDS011;10715;48.546;9.896;2022-12-29T15:20:13;4.10;;;2.73;;
21114;SDS011;10715;48.546;9.896;2022-12-29T15:22:46;6.73;;;2.20;;
21114;SDS011;10715;48.546;9.896;2022-12-29T15:25:16;3.47;;;2.40;;
21114;SDS011;10715;48.546;9.896;2022-12-29T15:27:48;5.60;;;2.97;;
21114;SDS011;10715;48.546;9.896;2022-12-29T15:30:23;4.30;;;3.77;;
21114;SDS011;10715;48.546;9.896;2022-12-29T15:32:50;3.90;;;2.90;;
21114;SDS011;10715;48.546;9.896;2022-12-29T15:35:29;4.13;;;2.80;;
21114;SDS011;10715;48.546;9.896;2022-12-29T15:37:57;5.93;;;4.23;;
21114;SDS011;10715;48.546;9.896;2022-12-29T15:40:25;3.67;;;3.37;;
21114;SDS011;10715;48.546;9.896;2022-12-29T15:45:40;6.93;;;4.70;;
21114;SDS011;10715;48.546;9.896;2022-12-29T15:48:07;4.03;;;3.63;;
21114;SDS011;10715;48.546;9.896;2022-12-29T15:50:42;8.53;;;4.60;;
21114;SDS011;10715;48.546;9.896;2022-12-29T15:53:16;9.13;;;6.80;;
21114;SDS011;10715;48.546;9.896;2022-12-29T15:55:51;30.20;;;15.23;;
21114;SDS011;10715;48.546;9.896;2022-12-29T15:58:18;22.30;;;12.57;;
21114;SDS011;10715;48.546;9.896;2022-12-29T16:00:48;37.40;;;18.20;;
21114;SDS011;10715;48.546;9.896;2022-12-29T16:03:15;47.30;;;22.23;;
21114;SDS011;10715;48.546;9.896;2022-12-29T16:05:42;44.63;;;28.03;;
21114;SDS011;10715;48.546;9.896;2022-12-29T16:08:24;30.97;;;20.20;;
21114;SDS011;10715;48.546;9.896;2022-12-29T16:11:02;35.13;;;22.87;;
21114;SDS011;10715;48.546;9.896;2022-12-29T16:13:47;49.10;;;29.90;;
21114;SDS011;10715;48.546;9.896;2022-12-29T16:16:22;66.50;;;41.50;;
21114;SDS011;10715;48.546;9.896;2022-12-29T16:18:53;105.60;;;64.43;;
21114;SDS011;10715;48.546;9.896;2022-12-29T16:21:21;120.70;;;73.03;;
21114;SDS011;10715;48.546;9.896;2022-12-29T16:23:52;79.80;;;53.07;;
21114;SDS011;10715;48.546;9.896;2022-12-29T16:26:20;79.80;;;51.37;;
21114;SDS011;10715;48.546;9.896;2022-12-29T16:28:50;58.73;;;37.37;;
21114;SDS011;10715;48.546;9.896;2022-12-29T16:33:57;47.80;;;31.93;;
21114;SDS011;10715;48.546;9.896;2022-12-29T16:36:31;44.23;;;30.83;;
21114;SDS011;10715;48.546;9.896;2022-12-29T16:39:18;43.23;;;33.50;;
21114;SDS011;10715;48.546;9.896;2022-12-29T16:41:50;35.43;;;25.53;;
21114;SDS011;10715;48.546;9.896;2022-12-29T16:45:03;31.63;;;25.93;;
21114;SDS011;10715;48.546;9.896;2022-12-29T16:50:36;32.53;;;24.50;;
21114;SDS011;10715;48.546;9.896;2022-12-29T16:53:04;41.93;;;32.77;;
21114;SDS011;10715;48.546;9.896;2022-12-29T16:55:31;27.83;;;20.40;;
21114;SDS011;10715;48.546;9.896;2022-12-29T16:57:57;27.43;;;22.10;;
21114;SDS011;10715;48.546;9.896;2022-12-29T17:00:29;27.97;;;20.10;;
21114;SDS011;10715;48.546;9.896;2022-12-29T17:03:00;20.33;;;15.20;;
21114;SDS011;10715;48.546;9.896;2022-12-29T17:05:28;25.60;;;17.60;;
21114;SDS011;10715;48.546;9.896;2022-12-29T17:07:53;25.70;;;17.20;;
21114;SDS011;10715;48.546;9.896;2022-12-29T17:10:25;34.37;;;17.43;;
21114;SDS011;10715;48.546;9.896;2022-12-29T17:13:11;19.60;;;13.33;;
21114;SDS011;10715;48.546;9.896;2022-12-29T17:15:37;19.83;;;12.70;;
21114;SDS011;10715;48.546;9.896;2022-12-29T17:18:03;15.27;;;11.67;;
21114;SDS011;10715;48.546;9.896;2022-12-29T17:20:30;14.40;;;11.60;;
21114;SDS011;10715;48.546;9.896;2022-12-29T17:22:57;13.57;;;11.07;;
21114;SDS011;10715;48.546;9.896;2022-12-29T17:25:31;11.37;;;9.37;;
21114;SDS011;10715;48.546;9.896;2022-12-29T17:28:00;12.47;;;8.57;;
21114;SDS011;10715;48.546;9.896;2022-12-29T17:30:27;9.00;;;8.20;;
21114;SDS011;10715;48.546;9.896;2022-12-29T17:32:56;7.80;;;6.67;;
21114;SDS011;10715;48.546;9.896;2022-12-29T17:35:25;8.30;;;7.33;;
21114;SDS011;10715;48.546;9.896;2022-12-29T17:37:53;6.60;;;6.20;;
21114;SDS011;10715;48.546;9.896;2022-12-29T17:40:24;18.20;;;11.50;;
21114;SDS011;10715;48.546;9.896;2022-12-29T17:42:52;10.23;;;9.23;;
21114;SDS011;10715;48.546;9.896;2022-12-29T17:45:30;10.73;;;8.00;;
21114;SDS011;10715;48.546;9.896;2022-12-29T17:47:57;30.77;;;13.90;;
21114;SDS011;10715;48.546;9.896;2022-12-29T17:50:26;16.60;;;10.67;;
21114;SDS011;10715;48.546;9.896;2022-12-29T17:52:55;8.97;;;8.10;;
21114;SDS011;10715;48.546;9.896;2022-12-29T17:55:23;17.83;;;10.10;;
21114;SDS011;10715;48.546;9.896;2022-12-29T17:57:50;15.23;;;7.90;;
21114;SDS011;10715;48.546;9.896;2022-12-29T18:02:43;8.50;;;7.63;;
21114;SDS011;10715;48.546;9.896;2022-12-29T18:05:14;16.27;;;9.47;;
21114;SDS011;10715;48.546;9.896;2022-12-29T18:07:45;18.50;;;8.87;;